Terminal Aerodrome Forecast
Issued by NWS Buffalo, NY

Home | Current Version | Previous Version | Text Only | Print | Product List | Glossary On
Versions: 1 2 3 4 5 6 7 8 9 10 11 12 13 14 15 16 17 18 19 20 21 22 23 24 25
000
FTUS41 KBUF 191700
TAFROC
TAF
KROC 191722Z 1918/2018 02008KT P6SM FEW030
     FM192300 05004KT P6SM FEW250
     FM200000 VRB03KT P6SM FEW250
     FM201300 12005KT P6SM SCT150=

USA.gov is the U.S. government's official web portal to all federal, state and local government web resources and services.